createdAt,value
2023-04-15T00:01:08.018Z,6.38
2023-04-15T00:02:39.880Z,5.32
2023-04-15T00:04:12.824Z,5.53
2023-04-15T00:05:45.869Z,7.03
2023-04-15T00:07:18.663Z,7.43
2023-04-15T00:08:50.580Z,7.93
2023-04-15T00:10:23.390Z,5.57
2023-04-15T00:11:55.220Z,9.73
2023-04-15T00:13:28.312Z,5.65
2023-04-15T00:15:01.442Z,8.23
2023-04-15T00:16:34.555Z,5.22
2023-04-15T00:18:07.939Z,6.93
2023-04-15T00:19:40.773Z,5.78
2023-04-15T00:21:13.561Z,9.60
2023-04-15T00:22:46.345Z,4.78
2023-04-15T00:24:19.044Z,7.13
2023-04-15T00:25:51.064Z,6.38
2023-04-15T00:27:23.799Z,6.97
2023-04-15T00:28:56.722Z,6.82
2023-04-15T00:30:31.340Z,7.43
2023-04-15T00:32:04.259Z,7.28
2023-04-15T00:33:37.600Z,5.68
2023-04-15T00:35:10.836Z,6.05
2023-04-15T00:36:43.532Z,4.32
2023-04-15T00:38:16.236Z,6.75
2023-04-15T00:39:48.921Z,6.70
2023-04-15T00:41:22.992Z,4.82
2023-04-15T00:42:55.753Z,5.47
2023-04-15T00:44:28.961Z,6.88
2023-04-15T00:46:03.992Z,5.93
2023-04-15T00:47:38.565Z,6.95
2023-04-15T00:49:11.696Z,3.65
2023-04-15T00:50:44.369Z,4.45
2023-04-15T00:52:16.132Z,6.97
2023-04-15T00:53:48.830Z,6.10
2023-04-15T00:55:21.772Z,4.57
2023-04-15T00:56:54.480Z,5.50
2023-04-15T00:58:27.940Z,6.80
2023-04-15T01:00:01.709Z,5.30
2023-04-15T01:01:37.211Z,5.35
2023-04-15T01:03:11.523Z,5.72
2023-04-15T01:04:44.361Z,7.03
2023-04-15T01:06:16.680Z,5.43
2023-04-15T01:07:49.566Z,4.60
2023-04-15T01:09:22.259Z,5.68
2023-04-15T01:10:55.841Z,6.90
2023-04-15T01:12:29.570Z,4.53
2023-04-15T01:14:03.238Z,6.70
2023-04-15T01:15:36.437Z,8.13
2023-04-15T01:17:10.454Z,8.10
2023-04-15T01:18:42.377Z,6.60
2023-04-15T01:20:15.911Z,6.00
2023-04-15T01:21:48.616Z,5.50
2023-04-15T01:23:22.055Z,7.53
2023-04-15T01:25:04.643Z,5.38
2023-04-15T01:26:39.073Z,8.63
2023-04-15T01:28:11.880Z,6.32
2023-04-15T01:29:44.592Z,7.65
2023-04-15T01:31:18.049Z,7.88
2023-04-15T01:32:51.026Z,5.45
2023-04-15T01:34:23.777Z,8.15
2023-04-15T01:35:55.715Z,6.03
2023-04-15T01:37:28.762Z,7.90
2023-04-15T01:39:01.856Z,7.07
2023-04-15T01:40:34.126Z,6.53
2023-04-15T01:42:08.347Z,8.85
2023-04-15T01:43:41.192Z,6.95
2023-04-15T01:45:14.254Z,5.30
2023-04-15T01:46:46.498Z,6.38
2023-04-15T01:48:19.350Z,6.38
2023-04-15T01:49:52.096Z,8.57
2023-04-15T01:51:24.792Z,6.50
2023-04-15T01:52:56.960Z,5.43
2023-04-15T01:54:29.716Z,6.38
2023-04-15T01:56:02.483Z,6.20
2023-04-15T01:57:35.689Z,6.82
2023-04-15T01:59:08.571Z,5.03
2023-04-15T02:00:41.552Z,5.45
2023-04-15T02:02:14.305Z,6.50
2023-04-15T02:03:47.729Z,6.10
2023-04-15T02:05:19.754Z,6.35
2023-04-15T02:06:52.547Z,7.13
2023-04-15T02:08:25.275Z,7.55
2023-04-15T02:09:57.566Z,5.05
2023-04-15T02:11:30.263Z,4.30
2023-04-15T02:13:04.571Z,5.07
2023-04-15T02:14:36.315Z,7.60
2023-04-15T02:16:17.626Z,5.32
2023-04-15T02:17:52.473Z,4.75
2023-04-15T02:19:25.369Z,5.95
2023-04-15T02:20:58.701Z,7.72
2023-04-15T02:22:31.634Z,7.03
2023-04-15T02:24:04.485Z,5.90
2023-04-15T02:25:37.249Z,5.97
2023-04-15T02:27:09.025Z,5.88
2023-04-15T02:28:43.062Z,6.68
2023-04-15T02:30:15.900Z,5.80
2023-04-15T02:31:48.691Z,6.65
2023-04-15T02:33:22.567Z,5.22
2023-04-15T02:34:55.293Z,4.97
2023-04-15T02:36:29.722Z,5.45
2023-04-15T02:38:03.112Z,8.10
2023-04-15T02:39:34.924Z,5.93
2023-04-15T02:41:07.613Z,8.07
2023-04-15T02:42:40.347Z,9.65
2023-04-15T02:44:14.359Z,9.52
2023-04-15T02:45:47.964Z,5.88
2023-04-15T02:47:20.763Z,7.32
2023-04-15T02:48:53.818Z,8.48
2023-04-15T02:50:27.516Z,7.13
2023-04-15T02:52:00.549Z,9.75
2023-04-15T02:53:32.301Z,6.80
2023-04-15T02:55:06.438Z,6.35
2023-04-15T02:56:39.149Z,7.05
2023-04-15T02:58:11.842Z,5.75
2023-04-15T02:59:45.841Z,7.60
2023-04-15T03:01:18.624Z,5.65
2023-04-15T03:02:56.232Z,6.30
2023-04-15T03:04:30.077Z,6.20
2023-04-15T03:06:02.864Z,8.30
2023-04-15T03:07:35.551Z,8.63
2023-04-15T03:09:07.671Z,7.60
2023-04-15T03:10:40.383Z,7.20
2023-04-15T03:12:13.100Z,9.52
2023-04-15T03:13:45.894Z,9.30
2023-04-15T03:15:19.928Z,7.05
2023-04-15T03:16:52.798Z,8.88
2023-04-15T03:18:25.535Z,7.38
2023-04-15T03:19:58.234Z,8.90
2023-04-15T03:21:30.689Z,9.18
2023-04-15T03:23:03.415Z,8.20
2023-04-15T03:24:36.107Z,10.70
2023-04-15T03:26:08.866Z,7.07
2023-04-15T03:27:41.450Z,6.03
2023-04-15T03:29:14.149Z,7.20
2023-04-15T03:30:48.340Z,6.38
2023-04-15T03:32:21.107Z,4.68
2023-04-15T03:33:53.844Z,7.78
2023-04-15T03:35:26.624Z,8.90
2023-04-15T03:36:59.321Z,7.43
2023-04-15T03:38:31.353Z,7.82
2023-04-15T03:40:04.180Z,5.78
2023-04-15T03:41:36.866Z,5.38
2023-04-15T03:43:09.632Z,5.68
2023-04-15T03:44:42.347Z,7.00
2023-04-15T03:46:15.589Z,6.57
2023-04-15T03:47:49.597Z,6.72
2023-04-15T03:49:23.162Z,5.55
2023-04-15T03:50:56.084Z,5.22
2023-04-15T03:52:28.791Z,4.82
2023-04-15T03:54:02.022Z,3.78
2023-04-15T03:55:34.696Z,8.02
2023-04-15T03:57:07.507Z,6.45
2023-04-15T03:58:39.261Z,4.60
2023-04-15T04:00:12.567Z,5.60
2023-04-15T04:01:46.869Z,5.72
2023-04-15T04:03:18.979Z,7.78
2023-04-15T04:04:52.014Z,6.28
2023-04-15T04:06:24.818Z,6.88
2023-04-15T04:07:57.553Z,5.93
2023-04-15T04:09:30.238Z,5.55
2023-04-15T04:11:02.966Z,6.40
2023-04-15T04:12:35.896Z,7.25
2023-04-15T04:14:08.617Z,7.30
2023-04-15T04:15:40.705Z,10.25
2023-04-15T04:17:14.760Z,8.13
2023-04-15T04:18:47.454Z,6.93
2023-04-15T04:20:19.179Z,6.75
2023-04-15T04:21:52.782Z,8.80
2023-04-15T04:23:25.505Z,6.57
2023-04-15T04:24:59.325Z,7.03
2023-04-15T04:26:32.034Z,6.88
2023-04-15T04:28:05.132Z,8.25
2023-04-15T04:29:36.874Z,7.97
2023-04-15T04:31:09.754Z,8.85
2023-04-15T04:32:43.878Z,6.97
2023-04-15T04:34:16.857Z,5.05
2023-04-15T04:35:49.545Z,4.85
2023-04-15T04:37:21.292Z,6.97
2023-04-15T04:38:53.982Z,5.57
2023-04-15T04:40:27.332Z,7.15
2023-04-15T04:42:00.055Z,6.53
2023-04-15T04:43:31.829Z,6.43
2023-04-15T04:45:04.779Z,5.28
2023-04-15T04:46:37.491Z,7.63
2023-04-15T04:48:11.574Z,6.05
2023-04-15T04:49:43.354Z,7.55
2023-04-15T04:51:16.117Z,6.97
2023-04-15T04:52:48.832Z,6.53
2023-04-15T04:54:21.519Z,6.32
2023-04-15T04:55:54.177Z,6.40
2023-04-15T04:57:26.883Z,5.82
2023-04-15T04:58:59.833Z,8.80
2023-04-15T05:00:32.970Z,6.72
2023-04-15T05:02:06.318Z,6.50
2023-04-15T05:03:40.556Z,7.90
2023-04-15T05:05:14.021Z,8.32
2023-04-15T05:06:46.697Z,6.35
2023-04-15T05:08:19.408Z,8.60
2023-04-15T05:09:52.108Z,4.70
2023-04-15T05:11:24.809Z,6.47
2023-04-15T05:12:58.026Z,8.13
2023-04-15T05:14:30.962Z,6.63
2023-04-15T05:16:03.733Z,6.95
2023-04-15T05:17:36.617Z,8.32
2023-04-15T05:19:10.763Z,8.40
2023-04-15T05:20:43.610Z,9.02
2023-04-15T05:22:16.441Z,6.20
2023-04-15T05:23:49.168Z,6.40
2023-04-15T05:25:22.258Z,6.32
2023-04-15T05:26:54.921Z,6.35
2023-04-15T05:28:27.655Z,10.55
2023-04-15T05:30:00.445Z,8.18
2023-04-15T05:31:33.233Z,7.07
2023-04-15T05:33:06.083Z,9.45
2023-04-15T05:34:40.411Z,11.15
2023-04-15T05:36:13.289Z,9.48
2023-04-15T05:37:46.486Z,7.38
2023-04-15T05:39:19.282Z,7.55
2023-04-15T05:40:52.021Z,6.20
2023-04-15T05:42:24.722Z,6.57
2023-04-15T05:43:57.411Z,6.88
2023-04-15T05:45:30.130Z,8.00
2023-04-15T05:47:03.531Z,8.45
2023-04-15T05:48:36.505Z,6.78
2023-04-15T05:50:11.647Z,9.95
2023-04-15T05:51:44.340Z,6.18
2023-04-15T05:53:17.048Z,8.13
2023-04-15T05:54:49.721Z,8.35
2023-04-15T05:56:22.426Z,5.78
2023-04-15T05:57:55.226Z,7.72
2023-04-15T05:59:28.333Z,7.97
2023-04-15T06:01:01.500Z,5.82
2023-04-15T06:02:34.303Z,5.75
2023-04-15T06:04:07.325Z,7.50
2023-04-15T06:05:41.445Z,5.75
2023-04-15T06:07:14.199Z,6.03
2023-04-15T06:08:47.150Z,9.18
2023-04-15T06:10:20.060Z,6.35
2023-04-15T06:11:53.099Z,7.20
2023-04-15T06:13:26.077Z,6.82
2023-04-15T06:15:00.090Z,6.40
2023-04-15T06:16:33.154Z,9.05
2023-04-15T06:18:06.149Z,4.88
2023-04-15T06:19:38.849Z,9.38
2023-04-15T06:21:13.027Z,5.30
2023-04-15T06:22:46.087Z,7.70
2023-04-15T06:24:18.781Z,6.63
2023-04-15T06:25:51.526Z,5.78
2023-04-15T06:27:24.378Z,6.05
2023-04-15T06:28:56.301Z,5.40
2023-04-15T06:30:29.011Z,4.95
2023-04-15T06:32:01.732Z,8.85
2023-04-15T06:33:34.474Z,5.63
2023-04-15T06:35:07.486Z,9.95
2023-04-15T06:36:41.532Z,5.78
2023-04-15T06:38:14.341Z,5.20
2023-04-15T06:39:47.149Z,7.82
2023-04-15T06:41:19.877Z,5.47
2023-04-15T06:42:52.615Z,5.97
2023-04-15T06:44:25.803Z,5.25
2023-04-15T06:45:58.554Z,6.88
2023-04-15T06:47:31.301Z,4.28
2023-04-15T06:49:05.294Z,4.57
2023-04-15T06:50:38.034Z,4.93
2023-04-15T06:52:12.909Z,4.90
2023-04-15T06:53:45.636Z,5.18
2023-04-15T06:55:18.383Z,5.22
2023-04-15T06:56:51.518Z,6.13
2023-04-15T06:58:24.219Z,4.30
2023-04-15T06:59:57.229Z,5.68
2023-04-15T07:01:30.081Z,7.85
2023-04-15T07:03:03.614Z,7.57
2023-04-15T07:04:36.445Z,4.68
2023-04-15T07:06:09.831Z,6.45
2023-04-15T07:07:44.086Z,4.18
2023-04-15T07:09:16.776Z,7.25
2023-04-15T07:10:49.578Z,6.78
2023-04-15T07:12:22.259Z,6.28
2023-04-15T07:13:54.946Z,6.85
2023-04-15T07:15:27.779Z,7.03
2023-04-15T07:17:00.561Z,5.88
2023-04-15T07:18:33.254Z,5.63
2023-04-15T07:20:05.781Z,7.53
2023-04-15T07:21:41.230Z,4.50
2023-04-15T07:23:16.293Z,5.60
2023-04-15T07:24:48.977Z,5.40
2023-04-15T07:26:21.710Z,4.40
2023-04-15T07:27:54.940Z,6.00
2023-04-15T07:29:27.911Z,8.73
2023-04-15T07:31:00.687Z,4.30
2023-04-15T07:32:33.503Z,6.30
2023-04-15T07:34:08.413Z,6.20
2023-04-15T07:35:41.150Z,4.30
2023-04-15T07:37:14.482Z,4.00
2023-04-15T07:38:49.041Z,6.00
2023-04-15T07:40:22.304Z,4.70
2023-04-15T07:41:55.020Z,4.83
2023-04-15T07:43:27.974Z,4.57
2023-04-15T07:45:00.761Z,7.13
2023-04-15T07:46:33.560Z,6.93
2023-04-15T07:48:08.002Z,4.97
2023-04-15T07:49:40.828Z,6.10
2023-04-15T07:51:13.865Z,5.47
2023-04-15T07:52:46.925Z,6.17
2023-04-15T07:54:20.958Z,5.33
2023-04-15T07:55:53.633Z,7.17
2023-04-15T07:57:26.327Z,5.10
2023-04-15T07:58:59.106Z,3.50
2023-04-15T08:00:32.050Z,4.60
2023-04-15T08:02:05.066Z,4.83
2023-04-15T08:03:38.313Z,4.20
2023-04-15T08:05:11.649Z,4.83
2023-04-15T08:06:44.483Z,5.10
2023-04-15T08:08:17.161Z,6.50
2023-04-15T08:09:51.166Z,4.10
2023-04-15T08:11:24.471Z,6.63
2023-04-15T08:12:57.463Z,4.60
2023-04-15T08:14:30.396Z,8.43
2023-04-15T08:16:20.568Z,6.47
2023-04-15T08:17:53.431Z,6.97
2023-04-15T08:19:26.245Z,8.07
2023-04-15T08:20:59.278Z,6.43
2023-04-15T08:22:31.994Z,4.90
2023-04-15T08:24:04.838Z,6.77
2023-04-15T08:25:38.847Z,5.10
2023-04-15T08:27:11.623Z,6.67
2023-04-15T08:28:46.807Z,4.90
2023-04-15T08:30:19.503Z,4.77
2023-04-15T08:31:54.029Z,5.97
2023-04-15T08:33:27.462Z,6.57
2023-04-15T08:35:00.625Z,7.67
2023-04-15T08:36:33.633Z,4.93
2023-04-15T08:38:06.348Z,6.77
2023-04-15T08:39:39.019Z,8.33
2023-04-15T08:41:22.311Z,9.03
2023-04-15T08:42:58.920Z,5.47
2023-04-15T08:44:34.150Z,6.30
2023-04-15T08:46:07.260Z,6.23
2023-04-15T08:47:41.700Z,4.97
2023-04-15T08:49:14.577Z,6.10
2023-04-15T08:50:48.645Z,7.10
2023-04-15T08:52:21.623Z,7.03
2023-04-15T08:53:54.577Z,4.53
2023-04-15T08:55:31.414Z,5.87
2023-04-15T08:57:05.487Z,4.60
2023-04-15T08:58:38.015Z,4.43
2023-04-15T09:00:12.413Z,5.50
2023-04-15T09:01:46.472Z,5.50
2023-04-15T09:03:19.885Z,6.50
2023-04-15T09:04:52.676Z,6.87
2023-04-15T09:06:26.120Z,5.73
2023-04-15T09:07:58.846Z,5.60
2023-04-15T09:09:31.578Z,4.97
2023-04-15T09:11:04.799Z,5.33
2023-04-15T09:12:39.080Z,5.20
2023-04-15T09:14:12.209Z,6.60
2023-04-15T09:15:44.941Z,4.90
2023-04-15T09:17:21.609Z,5.50
2023-04-15T09:18:54.952Z,6.53
2023-04-15T09:20:27.904Z,8.03
2023-04-15T09:22:01.281Z,6.83
2023-04-15T09:23:34.550Z,4.77
2023-04-15T09:25:27.421Z,4.80
2023-04-15T09:27:00.498Z,5.60
2023-04-15T09:28:35.822Z,6.23
2023-04-15T09:30:10.459Z,8.80
2023-04-15T09:31:43.486Z,5.90
2023-04-15T09:33:16.426Z,8.97
2023-04-15T09:34:49.160Z,6.00
2023-04-15T09:36:21.893Z,4.97
2023-04-15T09:38:02.477Z,5.03
2023-04-15T09:39:49.915Z,4.67
2023-04-15T09:41:23.256Z,6.27
2023-04-15T09:42:56.331Z,3.73
2023-04-15T09:44:30.548Z,4.20
2023-04-15T09:46:03.368Z,3.63
2023-04-15T09:47:36.097Z,4.83
2023-04-15T09:49:09.578Z,4.13
2023-04-15T09:50:42.820Z,8.27
2023-04-15T09:52:15.879Z,5.00
2023-04-15T09:53:56.408Z,4.53
2023-04-15T09:55:33.921Z,3.60
2023-04-15T09:57:07.209Z,4.07
2023-04-15T09:58:41.571Z,4.23
2023-04-15T10:00:16.391Z,3.20
2023-04-15T10:01:49.250Z,4.50
2023-04-15T10:03:25.127Z,5.83
2023-04-15T10:04:58.654Z,4.97
2023-04-15T10:06:31.885Z,5.10
2023-04-15T10:08:05.351Z,3.93
2023-04-15T10:09:39.327Z,3.03
2023-04-15T10:11:13.951Z,5.47
2023-04-15T10:12:47.112Z,2.57
2023-04-15T10:14:21.107Z,2.10
2023-04-15T10:15:59.091Z,2.70
2023-04-15T10:17:35.266Z,1.70
2023-04-15T10:19:10.427Z,4.60
2023-04-15T10:20:43.769Z,1.53
2023-04-15T10:22:17.090Z,2.10
2023-04-15T10:23:50.063Z,2.10
2023-04-15T10:25:23.449Z,2.87
2023-04-15T10:26:57.166Z,2.93
2023-04-15T10:28:29.889Z,1.90
2023-04-15T10:30:03.646Z,1.57
2023-04-15T10:31:38.425Z,1.97
2023-04-15T10:33:12.070Z,1.47
2023-04-15T10:34:46.440Z,2.20
2023-04-15T10:36:20.490Z,3.27
2023-04-15T10:37:53.357Z,4.53
2023-04-15T10:39:44.222Z,2.03
2023-04-15T10:41:21.065Z,1.43
2023-04-15T10:42:55.250Z,1.73
2023-04-15T10:44:28.008Z,2.20
2023-04-15T10:46:00.764Z,2.53
2023-04-15T10:47:34.841Z,2.13
2023-04-15T10:49:11.889Z,1.60
2023-04-15T10:50:57.475Z,1.87
2023-04-15T10:52:30.861Z,2.90
2023-04-15T10:54:03.580Z,3.07
2023-04-15T10:55:36.507Z,1.43
2023-04-15T10:57:10.698Z,3.00
2023-04-15T10:58:45.368Z,2.20
2023-04-15T11:00:19.804Z,3.10
2023-04-15T11:01:57.038Z,2.83
2023-04-15T11:03:40.967Z,3.00
2023-04-15T11:05:14.498Z,2.60
2023-04-15T11:06:47.238Z,3.33
2023-04-15T11:08:20.883Z,2.93
2023-04-15T11:09:53.621Z,3.20
2023-04-15T11:12:00.375Z,2.40
2023-04-15T11:13:34.240Z,3.33
2023-04-15T11:15:28.066Z,2.10
2023-04-15T11:17:00.785Z,2.03
2023-04-15T11:18:35.345Z,4.67
2023-04-15T11:20:10.565Z,2.73
2023-04-15T11:21:43.268Z,2.77
2023-04-15T11:23:16.060Z,1.50
2023-04-15T11:24:50.480Z,5.10
2023-04-15T11:26:27.572Z,1.50
2023-04-15T11:28:01.613Z,2.17
2023-04-15T11:29:34.309Z,1.40
2023-04-15T11:31:10.616Z,3.13
2023-04-15T11:32:44.127Z,2.47
2023-04-15T11:34:24.262Z,1.33
2023-04-15T11:35:58.332Z,1.63
2023-04-15T11:37:31.529Z,2.87
2023-04-15T11:39:08.075Z,2.13
2023-04-15T11:40:40.919Z,2.20
2023-04-15T11:42:18.374Z,2.77
2023-04-15T11:43:51.334Z,1.43
2023-04-15T11:45:24.022Z,1.93
2023-04-15T11:46:57.421Z,1.37
2023-04-15T11:48:32.174Z,1.70
2023-04-15T11:50:19.103Z,1.43
2023-04-15T11:51:53.171Z,1.53
2023-04-15T11:53:37.038Z,1.90
2023-04-15T11:55:10.485Z,1.63
2023-04-15T11:56:43.210Z,0.97
2023-04-15T11:58:18.041Z,1.57
2023-04-15T11:59:50.735Z,1.37
2023-04-15T12:01:32.689Z,1.87
2023-04-15T12:03:14.069Z,0.80
2023-04-15T12:04:46.935Z,1.17
2023-04-15T12:06:20.948Z,0.90
2023-04-15T12:08:01.498Z,0.80
2023-04-15T12:09:39.770Z,0.80
2023-04-15T12:11:11.562Z,1.30
2023-04-15T12:12:44.317Z,1.10
2023-04-15T12:14:23.630Z,1.20
2023-04-15T12:15:56.052Z,0.70
2023-04-15T12:17:28.863Z,1.00
2023-04-15T12:19:04.285Z,1.83
2023-04-15T12:20:45.100Z,1.60
2023-04-15T12:22:19.876Z,1.70
2023-04-15T12:23:55.481Z,0.70
2023-04-15T12:25:35.787Z,1.53
2023-04-15T12:27:09.725Z,0.97
2023-04-15T12:28:41.634Z,1.20
2023-04-15T12:30:14.739Z,1.00
2023-04-15T12:31:52.491Z,0.70
2023-04-15T12:33:25.182Z,1.47
2023-04-15T12:34:58.160Z,1.30
2023-04-15T12:36:36.088Z,0.80
2023-04-15T12:38:10.673Z,1.07
2023-04-15T12:39:46.824Z,1.27
2023-04-15T12:41:20.853Z,1.47
2023-04-15T12:42:53.542Z,1.10
2023-04-15T12:44:27.079Z,1.00
2023-04-15T12:45:58.897Z,0.70
2023-04-15T12:47:31.773Z,0.97
2023-04-15T12:49:04.779Z,0.90
2023-04-15T12:50:37.493Z,1.70
2023-04-15T12:52:10.386Z,1.93
2023-04-15T12:53:43.121Z,0.97
2023-04-15T12:55:18.072Z,0.90
2023-04-15T12:56:51.954Z,1.20
2023-04-15T12:58:24.705Z,0.70
2023-04-15T12:59:57.491Z,1.03
2023-04-15T13:01:30.467Z,0.97
2023-04-15T13:03:06.237Z,0.80
2023-04-15T13:04:39.734Z,1.43
2023-04-15T13:06:12.459Z,0.90
2023-04-15T13:07:45.248Z,0.77
2023-04-15T13:09:18.024Z,1.20
2023-04-15T13:10:52.067Z,1.00
2023-04-15T13:12:24.854Z,1.10
2023-04-15T13:13:57.867Z,1.60
2023-04-15T13:15:30.733Z,0.70
2023-04-15T13:17:08.840Z,2.10
2023-04-15T13:18:41.933Z,0.90
2023-04-15T13:20:15.307Z,0.87
2023-04-15T13:21:48.188Z,1.10
2023-04-15T13:23:20.923Z,0.90
2023-04-15T13:24:53.614Z,1.90
2023-04-15T13:26:27.968Z,2.03
2023-04-15T13:28:01.240Z,1.50
2023-04-15T13:29:33.960Z,1.73
2023-04-15T13:31:07.359Z,0.90
2023-04-15T13:32:40.388Z,0.87
2023-04-15T13:34:13.084Z,2.13
2023-04-15T13:35:46.282Z,1.00
2023-04-15T13:37:19.106Z,0.97
2023-04-15T13:38:51.996Z,1.00
2023-04-15T13:40:24.823Z,1.03
2023-04-15T13:41:58.877Z,2.40
2023-04-15T13:43:33.527Z,1.10
2023-04-15T13:45:07.339Z,2.70
2023-04-15T13:46:41.786Z,1.20
2023-04-15T13:48:14.508Z,1.10
2023-04-15T13:49:47.279Z,0.80
2023-04-15T13:51:20.123Z,0.80
2023-04-15T13:52:52.863Z,1.13
2023-04-15T13:54:25.647Z,1.10
2023-04-15T13:56:11.015Z,2.60
2023-04-15T13:57:45.590Z,2.20
2023-04-15T13:59:18.923Z,1.80
2023-04-15T14:00:51.630Z,1.60
2023-04-15T14:02:24.443Z,1.43
2023-04-15T14:03:57.419Z,1.63
2023-04-15T14:05:30.296Z,1.50
2023-04-15T14:07:05.039Z,1.40
2023-04-15T14:08:38.058Z,1.13
2023-04-15T14:10:10.939Z,1.60
2023-04-15T14:11:43.766Z,1.23
2023-04-15T14:13:19.400Z,1.50
2023-04-15T14:14:52.141Z,1.23
2023-04-15T14:16:24.980Z,1.20
2023-04-15T14:17:58.493Z,1.53
2023-04-15T14:19:32.115Z,1.20
2023-04-15T14:21:05.361Z,1.10
2023-04-15T14:22:38.172Z,1.27
2023-04-15T14:24:12.249Z,1.00
2023-04-15T14:25:46.820Z,1.07
2023-04-15T14:27:20.839Z,1.23
2023-04-15T14:28:55.363Z,1.20
2023-04-15T14:30:28.087Z,1.27
2023-04-15T14:32:04.541Z,1.50
2023-04-15T14:33:45.260Z,1.67
2023-04-15T14:35:18.004Z,1.67
2023-04-15T14:36:50.752Z,1.10
2023-04-15T14:38:23.458Z,1.73
2023-04-15T14:39:56.269Z,1.77
2023-04-15T14:41:29.041Z,1.43
2023-04-15T14:43:01.780Z,1.30
2023-04-15T14:44:35.892Z,1.50
2023-04-15T14:46:09.051Z,2.13
2023-04-15T14:47:41.951Z,1.60
2023-04-15T14:49:14.759Z,1.80
2023-04-15T14:50:47.495Z,1.60
2023-04-15T14:52:20.185Z,1.63
2023-04-15T14:53:52.855Z,2.30
2023-04-15T14:55:25.778Z,1.70
2023-04-15T14:56:58.487Z,2.30
2023-04-15T14:58:32.674Z,1.97
2023-04-15T15:00:08.269Z,2.40
2023-04-15T15:01:41.051Z,2.00
2023-04-15T15:03:14.765Z,1.80
2023-04-15T15:04:47.690Z,1.87
2023-04-15T15:06:21.856Z,1.80
2023-04-15T15:07:54.607Z,1.80
2023-04-15T15:09:27.318Z,2.10
2023-04-15T15:11:00.154Z,1.90
2023-04-15T15:12:34.057Z,1.80
2023-04-15T15:14:06.818Z,3.57
2023-04-15T15:15:41.125Z,1.87
2023-04-15T15:17:15.366Z,2.23
2023-04-15T15:18:48.072Z,1.93
2023-04-15T15:20:20.972Z,1.93
2023-04-15T15:21:53.676Z,2.27
2023-04-15T15:23:26.388Z,2.60
2023-04-15T15:25:00.792Z,2.33
2023-04-15T15:26:33.510Z,2.20
2023-04-15T15:28:05.928Z,2.50
2023-04-15T15:29:39.061Z,2.20
2023-04-15T15:31:13.168Z,2.00
2023-04-15T15:32:45.982Z,2.20
2023-04-15T15:34:18.723Z,2.30
2023-04-15T15:35:52.212Z,2.60
2023-04-15T15:37:24.933Z,2.47
2023-04-15T15:38:59.646Z,2.23
2023-04-15T15:40:32.553Z,2.60
2023-04-15T15:42:06.584Z,2.50
2023-04-15T15:43:39.266Z,2.60
2023-04-15T15:45:11.574Z,2.60
2023-04-15T15:46:45.902Z,2.70
2023-04-15T15:48:18.793Z,3.10
2023-04-15T15:49:50.602Z,3.00
2023-04-15T15:51:23.380Z,3.00
2023-04-15T15:52:56.131Z,3.10
2023-04-15T15:54:29.128Z,3.40
2023-04-15T15:56:03.659Z,2.90
2023-04-15T15:57:36.665Z,3.00
2023-04-15T15:59:09.357Z,3.20
2023-04-15T16:00:42.616Z,3.40
2023-04-15T16:02:16.812Z,3.20
2023-04-15T16:03:49.785Z,3.30
2023-04-15T16:05:22.629Z,3.20
2023-04-15T16:06:55.321Z,3.53
2023-04-15T16:08:28.040Z,3.10
2023-04-15T16:10:00.806Z,3.90
2023-04-15T16:11:33.569Z,3.70
2023-04-15T16:13:06.298Z,4.10
2023-04-15T16:14:39.061Z,3.50
2023-04-15T16:16:11.827Z,3.63
2023-04-15T16:17:46.023Z,3.33
2023-04-15T16:19:18.739Z,3.10
2023-04-15T16:20:51.883Z,3.60
2023-04-15T16:22:24.581Z,3.20
2023-04-15T16:23:57.400Z,3.40
2023-04-15T16:25:30.140Z,3.43
2023-04-15T16:27:02.909Z,3.83
2023-04-15T16:28:35.685Z,3.93
2023-04-15T16:30:09.603Z,3.73
2023-04-15T16:31:42.398Z,3.93
2023-04-15T16:33:16.647Z,3.83
2023-04-15T16:34:49.364Z,4.50
2023-04-15T16:36:22.124Z,3.77
2023-04-15T16:37:54.808Z,3.60
2023-04-15T16:39:27.592Z,3.80
2023-04-15T16:41:02.337Z,4.10
2023-04-15T16:42:35.223Z,3.43
2023-04-15T16:44:08.926Z,3.57
2023-04-15T16:45:41.697Z,4.27
2023-04-15T16:47:14.749Z,4.10
2023-04-15T16:48:48.826Z,3.47
2023-04-15T16:50:21.534Z,3.50
2023-04-15T16:51:54.680Z,3.30
2023-04-15T16:53:27.433Z,3.53
2023-04-15T16:55:00.274Z,3.57
2023-04-15T16:56:32.974Z,3.60
2023-04-15T16:58:07.939Z,3.50
2023-04-15T16:59:41.180Z,3.60
2023-04-15T17:01:13.919Z,3.20
2023-04-15T17:02:46.828Z,3.20
2023-04-15T17:04:21.188Z,3.20
2023-04-15T17:05:54.027Z,3.30
2023-04-15T17:07:26.692Z,3.97
2023-04-15T17:08:59.397Z,3.40
2023-04-15T17:10:32.209Z,2.83
2023-04-15T17:12:05.310Z,3.23
2023-04-15T17:13:38.093Z,3.30
2023-04-15T17:15:11.338Z,4.70
2023-04-15T17:16:44.070Z,3.07
2023-04-15T17:18:17.170Z,2.90
2023-04-15T17:19:51.203Z,2.80
2023-04-15T17:21:23.910Z,2.63
2023-04-15T17:22:56.672Z,3.07
2023-04-15T17:24:29.630Z,3.10
2023-04-15T17:26:01.712Z,2.73
2023-04-15T17:27:34.422Z,3.23
2023-04-15T17:29:07.235Z,3.87
2023-04-15T17:30:39.255Z,3.37
2023-04-15T17:32:12.124Z,4.90
2023-04-15T17:33:55.826Z,3.50
2023-04-15T17:35:40.539Z,3.50
2023-04-15T17:37:13.223Z,3.33
2023-04-15T17:38:45.909Z,3.10
2023-04-15T17:40:18.722Z,3.50
2023-04-15T17:41:51.448Z,3.90
2023-04-15T17:43:24.126Z,4.63
2023-04-15T17:44:56.960Z,4.27
2023-04-15T17:46:29.844Z,4.03
2023-04-15T17:48:03.473Z,3.87
2023-04-15T17:49:37.716Z,4.50
2023-04-15T17:51:12.692Z,3.30
2023-04-15T17:52:48.196Z,4.23
2023-04-15T17:54:20.872Z,4.30
2023-04-15T17:55:53.739Z,3.90
2023-04-15T17:57:26.471Z,4.15
2023-04-15T17:59:00.392Z,4.20
2023-04-15T18:00:33.136Z,4.60
2023-04-15T18:02:05.924Z,4.00
2023-04-15T18:03:39.127Z,4.23
2023-04-15T18:05:12.037Z,4.40
2023-04-15T18:06:46.163Z,4.65
2023-04-15T18:08:18.905Z,4.97
2023-04-15T18:09:51.684Z,4.77
2023-04-15T18:11:24.483Z,4.73
2023-04-15T18:12:57.178Z,4.22
2023-04-15T18:14:34.664Z,4.83
2023-04-15T18:16:07.854Z,6.17
2023-04-15T18:17:40.605Z,5.30
2023-04-15T18:19:13.282Z,5.10
2023-04-15T18:20:46.034Z,5.63
2023-04-15T18:22:20.208Z,5.10
2023-04-15T18:23:52.882Z,5.20
2023-04-15T18:25:25.601Z,5.37
2023-04-15T18:26:58.974Z,6.00
2023-04-15T18:28:31.750Z,5.70
2023-04-15T18:30:04.804Z,5.67
2023-04-15T18:31:37.543Z,5.80
2023-04-15T18:33:10.272Z,5.47
2023-04-15T18:34:43.588Z,6.20
2023-04-15T18:36:16.330Z,5.45
2023-04-15T18:37:50.417Z,5.60
2023-04-15T18:39:23.091Z,6.27
2023-04-15T18:40:55.979Z,5.93
2023-04-15T18:42:28.677Z,5.60
2023-04-15T18:44:01.378Z,6.20
2023-04-15T18:45:34.108Z,5.60
2023-04-15T18:47:06.867Z,5.50
2023-04-15T18:48:39.564Z,5.57
2023-04-15T18:50:12.505Z,5.80
2023-04-15T18:51:45.302Z,5.60
2023-04-15T18:53:19.344Z,4.70
2023-04-15T18:54:52.036Z,4.33
2023-04-15T18:56:24.905Z,5.20
2023-04-15T18:58:08.340Z,5.53
2023-04-15T18:59:41.766Z,6.47
2023-04-15T19:01:14.498Z,10.80
2023-04-15T19:02:47.301Z,8.60
2023-04-15T19:04:20.313Z,5.20
2023-04-15T19:05:53.036Z,5.00
2023-04-15T19:07:25.830Z,4.90
2023-04-15T19:08:59.915Z,5.00
2023-04-15T19:10:32.656Z,4.67
2023-04-15T19:12:05.489Z,4.97
2023-04-15T19:13:38.181Z,4.65
2023-04-15T19:15:11.567Z,4.35
2023-04-15T19:16:44.336Z,4.60
2023-04-15T19:18:17.139Z,4.05
2023-04-15T19:19:49.889Z,4.20
2023-04-15T19:21:22.705Z,4.40
2023-04-15T19:22:55.903Z,4.83
2023-04-15T19:24:33.007Z,4.50
2023-04-15T19:26:08.079Z,4.10
2023-04-15T19:27:40.826Z,4.40
2023-04-15T19:29:13.572Z,4.10
2023-04-15T19:30:46.301Z,4.60
2023-04-15T19:32:19.068Z,4.30
2023-04-15T19:33:51.995Z,4.93
2023-04-15T19:35:24.747Z,5.10
2023-04-15T19:36:57.556Z,4.90
2023-04-15T19:38:30.500Z,5.00
2023-04-15T19:40:04.794Z,5.17
2023-04-15T19:41:39.139Z,4.77
2023-04-15T19:43:11.854Z,4.73
2023-04-15T19:44:44.676Z,5.00
2023-04-15T19:46:17.457Z,5.07
2023-04-15T19:47:50.442Z,4.78
2023-04-15T19:49:23.289Z,4.90
2023-04-15T19:50:56.089Z,5.10
2023-04-15T19:52:29.191Z,5.60
2023-04-15T19:54:01.935Z,4.60
2023-04-15T19:55:36.021Z,5.03
2023-04-15T19:57:08.737Z,5.30
2023-04-15T19:58:41.466Z,5.13
2023-04-15T20:00:14.708Z,5.50
2023-04-15T20:01:47.988Z,5.20
2023-04-15T20:03:21.122Z,4.82
2023-04-15T20:04:53.915Z,5.30
2023-04-15T20:06:27.482Z,5.88
2023-04-15T20:08:01.647Z,5.40
2023-04-15T20:09:34.405Z,5.50
2023-04-15T20:11:08.926Z,5.75
2023-04-15T20:12:50.811Z,5.53
2023-04-15T20:14:25.704Z,5.53
2023-04-15T20:15:58.431Z,5.10
2023-04-15T20:17:33.793Z,5.30
2023-04-15T20:19:08.559Z,5.00
2023-04-15T20:20:41.437Z,7.00
2023-04-15T20:22:14.158Z,5.40
2023-04-15T20:23:46.860Z,5.50
2023-04-15T20:25:19.946Z,6.18
2023-04-15T20:26:53.966Z,5.47
2023-04-15T20:28:27.451Z,5.20
2023-04-15T20:30:00.451Z,5.60
2023-04-15T20:31:33.904Z,5.20
2023-04-15T20:33:07.795Z,9.80
2023-04-15T20:34:40.481Z,4.93
2023-04-15T20:36:13.407Z,5.13
2023-04-15T20:37:46.214Z,5.47
2023-04-15T20:39:18.959Z,4.90
2023-04-15T20:40:51.791Z,5.30
2023-04-15T20:42:26.033Z,5.03
2023-04-15T20:43:58.764Z,5.80
2023-04-15T20:45:31.537Z,5.28
2023-04-15T20:47:04.288Z,5.13